Time;durP1;ratioP1;P1;durP2;ratioP2;P2;SDS_P1;SDS_P2;PMS_P1;PMS_P2;Temp;Humidity;BMP_temperature;BMP_pressure;BME280_temperature;BME280_humidity;BME280_pressure;Samples;Min_cycle;Max_cycle;Signal;HPM_P1;HPM_P2
2020/12/18 00:00:32;;;;;;;7.57;5.45;;;;;;;;;;2089794;28;20237;-62
2020/12/18 00:01:33;;;;;;;8.10;5.97;;;;;;;;;;2083513;28;20271;-62
2020/12/18 00:02:33;;;;;;;8.70;4.93;;;;;;;;;;2088107;28;20664;-63
2020/12/18 00:03:33;;;;;;;8.90;5.78;;;;;;;;;;2083447;28;20207;-61
2020/12/18 00:04:33;;;;;;;7.30;5.83;;;;;;;;;;2090048;28;20210;-62
2020/12/18 00:05:34;;;;;;;8.23;6.68;;;;;;;;;;2090041;28;20707;-61
2020/12/18 00:06:35;;;;;;;8.13;6.28;;;;;;;;;;2090185;28;20636;-63
2020/12/18 00:07:35;;;;;;;10.73;6.70;;;;;;;;;;2090583;28;20168;-63
2020/12/18 00:08:35;;;;;;;7.80;6.97;;;;;;;;;;2089753;28;20191;-63
2020/12/18 00:09:36;;;;;;;10.50;6.53;;;;;;;;;;2087655;28;20640;-62
2020/12/18 00:10:39;;;;;;;10.07;6.50;;;;;;;;;;2084539;28;20168;-62
2020/12/18 00:11:40;;;;;;;7.40;6.45;;;;;;;;;;2089918;28;20638;-62
2020/12/18 00:12:40;;;;;;;8.55;5.97;;;;;;;;;;2087438;28;20169;-62
2020/12/18 00:13:40;;;;;;;8.95;6.32;;;;;;;;;;2090804;28;20171;-62
2020/12/18 00:14:40;;;;;;;9.03;6.13;;;;;;;;;;2083279;28;20287;-62
2020/12/18 00:15:41;;;;;;;12.40;6.80;;;;;;;;;;2082577;28;20199;-63
2020/12/18 00:16:41;;;;;;;9.07;6.55;;;;;;;;;;2082995;28;20184;-63
2020/12/18 00:17:41;;;;;;;7.18;6.10;;;;;;;;;;2082425;28;20199;-63
2020/12/18 00:18:41;;;;;;;6.93;6.22;;;;;;;;;;2086435;28;20188;-62
2020/12/18 00:19:41;;;;;;;11.88;6.07;;;;;;;;;;2090033;28;20184;-62
2020/12/18 00:20:42;;;;;;;11.97;6.53;;;;;;;;;;2082490;28;20184;-63
2020/12/18 00:21:42;;;;;;;13.40;6.90;;;;;;;;;;2090795;28;20187;-63
2020/12/18 00:22:42;;;;;;;9.85;6.55;;;;;;;;;;2082690;28;20657;-62
2020/12/18 00:23:42;;;;;;;7.68;6.43;;;;;;;;;;2090867;28;20213;-62
2020/12/18 00:24:43;;;;;;;8.63;6.18;;;;;;;;;;2089959;28;20246;-60
2020/12/18 00:25:47;;;;;;;7.47;6.38;;;;;;;;;;2090292;28;20207;-62
2020/12/18 00:26:48;;;;;;;7.65;6.22;;;;;;;;;;2083397;28;20172;-62
2020/12/18 00:27:48;;;;;;;9.55;6.38;;;;;;;;;;2088697;28;20211;-62
2020/12/18 00:28:48;;;;;;;10.40;6.43;;;;;;;;;;2088576;28;20207;-60
2020/12/18 00:29:48;;;;;;;7.60;6.40;;;;;;;;;;2082550;28;20173;-61
2020/12/18 00:30:49;;;;;;;9.90;6.53;;;;;;;;;;2073544;28;20199;-59
2020/12/18 00:31:49;;;;;;;8.00;5.82;;;;;;;;;;2073732;28;20660;-61
2020/12/18 00:32:49;;;;;;;8.60;6.13;;;;;;;;;;2082472;28;20192;-62
2020/12/18 00:33:49;;;;;;;8.70;6.13;;;;;;;;;;2085277;28;20303;-62
2020/12/18 00:34:50;;;;;;;9.48;5.82;;;;;;;;;;2088954;28;20565;-61
2020/12/18 00:35:51;;;;;;;7.50;6.57;;;;;;;;;;2094829;23;20307;-58
2020/12/18 00:36:51;;;;;;;7.72;6.28;;;;;;;;;;2090621;28;20167;-57
2020/12/18 00:37:52;;;;;;;7.50;5.97;;;;;;;;;;2084228;28;20183;-60
2020/12/18 00:38:52;;;;;;;8.88;6.50;;;;;;;;;;2080804;28;20213;-56
2020/12/18 00:39:52;;;;;;;14.18;6.30;;;;;;;;;;2074757;28;20173;-60
2020/12/18 00:40:52;;;;;;;8.90;6.57;;;;;;;;;;2065397;28;20197;-58
2020/12/18 00:41:53;;;;;;;9.25;7.03;;;;;;;;;;2061217;28;20671;-58
2020/12/18 00:42:54;;;;;;;8.90;5.97;;;;;;;;;;2076647;28;20165;-60
2020/12/18 00:43:54;;;;;;;10.45;6.18;;;;;;;;;;2091502;28;20242;-61
2020/12/18 00:44:55;;;;;;;12.63;7.20;;;;;;;;;;2083552;28;20204;-59
2020/12/18 00:45:55;;;;;;;8.13;6.50;;;;;;;;;;2076373;28;20196;-61
2020/12/18 00:46:55;;;;;;;9.00;7.30;;;;;;;;;;2077985;28;20192;-61
2020/12/18 00:47:56;;;;;;;10.55;6.88;;;;;;;;;;2081255;28;20181;-60
2020/12/18 00:48:56;;;;;;;11.85;7.38;;;;;;;;;;2085806;28;20292;-59
2020/12/18 00:49:56;;;;;;;9.70;7.00;;;;;;;;;;2078812;28;20169;-63
2020/12/18 00:50:57;;;;;;;7.40;6.50;;;;;;;;;;2084001;28;20183;-60
2020/12/18 00:51:57;;;;;;;9.52;7.28;;;;;;;;;;2079362;28;20241;-62
2020/12/18 00:52:58;;;;;;;8.63;7.50;;;;;;;;;;2076870;28;20165;-60
2020/12/18 00:53:58;;;;;;;11.00;7.50;;;;;;;;;;2078167;28;20212;-61
2020/12/18 00:54:58;;;;;;;8.70;7.28;;;;;;;;;;2078181;28;20176;-60
2020/12/18 00:56:05;;;;;;;10.10;7.43;;;;;;;;;;2079058;28;21602;-59
2020/12/18 00:57:06;;;;;;;9.57;7.00;;;;;;;;;;2078170;28;20552;-61
2020/12/18 00:58:06;;;;;;;10.02;7.32;;;;;;;;;;2070217;28;20173;-57
2020/12/18 00:59:07;;;;;;;9.67;7.73;;;;;;;;;;2076649;28;20216;-58
2020/12/18 01:00:07;;;;;;;8.87;6.97;;;;;;;;;;2068888;28;20265;-60
2020/12/18 01:01:32;;;;;;;9.73;7.97;;;;;;;;;;2081029;28;20202;-63
2020/12/18 01:02:32;;;;;;;9.47;7.53;;;;;;;;;;2082335;28;20184;-59
2020/12/18 01:03:32;;;;;;;11.10;7.93;;;;;;;;;;2083073;28;20721;-58
2020/12/18 01:04:33;;;;;;;11.33;8.40;;;;;;;;;;2066923;28;20213;-59
2020/12/18 01:05:33;;;;;;;9.13;7.78;;;;;;;;;;2073787;28;20208;-58
2020/12/18 01:06:34;;;;;;;7.90;7.20;;;;;;;;;;2074756;28;20802;-59
2020/12/18 01:07:36;;;;;;;13.20;8.33;;;;;;;;;;2073145;28;20176;-61
2020/12/18 01:08:36;;;;;;;10.80;8.32;;;;;;;;;;2076421;28;20231;-59
2020/12/18 01:09:37;;;;;;;14.77;7.97;;;;;;;;;;2074785;28;20176;-60
2020/12/18 01:10:40;;;;;;;12.75;7.88;;;;;;;;;;2074666;28;20622;-58
2020/12/18 01:11:40;;;;;;;8.87;7.83;;;;;;;;;;2076506;28;20235;-59
2020/12/18 01:12:47;;;;;;;9.63;8.70;;;;;;;;;;2072645;28;20181;-59
2020/12/18 01:13:47;;;;;;;12.90;8.15;;;;;;;;;;2067751;28;20177;-57
2020/12/18 01:14:48;;;;;;;11.43;8.38;;;;;;;;;;2075390;28;20256;-57
2020/12/18 01:15:48;;;;;;;10.60;7.95;;;;;;;;;;2087180;28;20197;-59
2020/12/18 01:17:02;;;;;;;10.07;7.73;;;;;;;;;;2076426;28;20244;-58
2020/12/18 01:18:02;;;;;;;9.73;8.33;;;;;;;;;;2062129;28;20170;-59
2020/12/18 01:19:03;;;;;;;14.70;9.27;;;;;;;;;;2075097;28;20729;-54
2020/12/18 01:20:08;;;;;;;12.18;8.80;;;;;;;;;;2083648;28;20199;-58
2020/12/18 01:21:09;;;;;;;11.97;7.90;;;;;;;;;;2083637;28;20195;-59
2020/12/18 01:22:12;;;;;;;10.13;8.52;;;;;;;;;;2073995;28;20180;-57
2020/12/18 01:23:19;;;;;;;10.90;8.70;;;;;;;;;;2068673;28;20181;-58
2020/12/18 01:24:24;;;;;;;10.73;8.50;;;;;;;;;;2075240;28;20169;-58
2020/12/18 01:25:29;;;;;;;8.82;7.90;;;;;;;;;;2074934;28;20264;-59
2020/12/18 01:26:29;;;;;;;11.30;8.47;;;;;;;;;;2082559;28;20191;-58
2020/12/18 01:27:30;;;;;;;12.43;9.13;;;;;;;;;;2091445;28;20176;-59
2020/12/18 01:28:30;;;;;;;11.60;9.10;;;;;;;;;;2074213;28;20181;-58
2020/12/18 01:29:30;;;;;;;10.98;8.93;;;;;;;;;;2068249;28;20190;-58
2020/12/18 01:30:31;;;;;;;11.70;8.55;;;;;;;;;;2080863;28;20320;-61
2020/12/18 01:31:31;;;;;;;14.02;9.18;;;;;;;;;;2073391;28;20570;-58
2020/12/18 01:32:32;;;;;;;12.60;9.03;;;;;;;;;;2082424;28;20592;-57
2020/12/18 01:33:33;;;;;;;10.80;9.10;;;;;;;;;;2082040;28;20173;-58
2020/12/18 01:34:36;;;;;;;10.80;9.60;;;;;;;;;;2074110;28;20195;-56
2020/12/18 01:35:37;;;;;;;13.20;9.60;;;;;;;;;;2073162;28;20267;-59
2020/12/18 01:36:40;;;;;;;12.67;9.07;;;;;;;;;;2074602;28;20267;-58
2020/12/18 01:37:53;;;;;;;11.07;9.00;;;;;;;;;;2065506;28;20177;-58
2020/12/18 01:38:56;;;;;;;12.53;9.50;;;;;;;;;;2062868;28;20189;-60
2020/12/18 01:39:57;;;;;;;13.43;10.10;;;;;;;;;;2070255;28;20261;-59
2020/12/18 01:41:05;;;;;;;10.07;9.07;;;;;;;;;;2066229;28;20170;-56
2020/12/18 01:42:06;;;;;;;15.07;9.83;;;;;;;;;;2062444;28;20205;-59
2020/12/18 01:43:06;;;;;;;10.53;9.43;;;;;;;;;;2074063;28;20169;-57
2020/12/18 01:44:07;;;;;;;13.05;9.55;;;;;;;;;;2074929;28;20176;-58
2020/12/18 01:45:11;;;;;;;12.40;9.40;;;;;;;;;;2073616;28;20219;-58
2020/12/18 01:46:38;;;;;;;13.20;9.60;;;;;;;;;;2086451;28;20171;-58
2020/12/18 01:47:39;;;;;;;11.73;9.93;;;;;;;;;;2081526;28;20188;-59
2020/12/18 01:48:41;;;;;;;12.70;10.27;;;;;;;;;;2082507;28;20649;-57
2020/12/18 01:49:41;;;;;;;13.83;9.20;;;;;;;;;;2087129;28;20554;-56
2020/12/18 01:50:42;;;;;;;12.13;10.33;;;;;;;;;;2074063;28;20188;-58
2020/12/18 01:51:43;;;;;;;14.23;10.20;;;;;;;;;;2059013;28;20225;-59
2020/12/18 01:52:45;;;;;;;12.47;10.17;;;;;;;;;;2065779;28;20193;-60
2020/12/18 01:53:49;;;;;;;14.27;10.57;;;;;;;;;;2066834;28;20203;-55
2020/12/18 01:55:07;;;;;;;11.43;10.20;;;;;;;;;;2076297;28;20232;-58
2020/12/18 01:56:16;;;;;;;13.43;9.83;;;;;;;;;;2074653;28;20197;-58
2020/12/18 01:57:21;;;;;;;12.23;9.57;;;;;;;;;;2066081;28;20596;-56
2020/12/18 01:58:32;;;;;;;12.70;10.13;;;;;;;;;;2081885;28;20160;-61
2020/12/18 01:59:32;;;;;;;12.90;10.40;;;;;;;;;;2073867;28;20252;-56
2020/12/18 02:00:58;;;;;;;10.47;8.90;;;;;;;;;;2073210;28;20176;-61
2020/12/18 02:02:08;;;;;;;10.83;9.70;;;;;;;;;;2075585;28;20665;-59
2020/12/18 02:03:19;;;;;;;11.30;9.77;;;;;;;;;;2077994;28;20176;-58
2020/12/18 02:04:41;;;;;;;10.83;9.73;;;;;;;;;;2069230;28;20181;-58
2020/12/18 02:05:42;;;;;;;10.43;9.33;;;;;;;;;;2070083;28;20173;-57
2020/12/18 02:07:00;;;;;;;13.60;10.07;;;;;;;;;;2075337;28;20175;-59
2020/12/18 02:08:10;;;;;;;11.10;9.00;;;;;;;;;;2071994;28;20177;-58
2020/12/18 02:09:36;;;;;;;15.33;10.77;;;;;;;;;;2081207;28;20566;-60
2020/12/18 02:10:39;;;;;;;11.03;9.90;;;;;;;;;;2077151;28;20172;-59
2020/12/18 02:11:40;;;;;;;11.20;9.70;;;;;;;;;;2072465;28;20208;-59
2020/12/18 02:12:48;;;;;;;11.90;10.10;;;;;;;;;;2074581;28;20188;-58
2020/12/18 02:13:52;;;;;;;12.87;9.80;;;;;;;;;;2073555;28;20497;-58
2020/12/18 02:14:53;;;;;;;17.87;9.87;;;;;;;;;;2081522;28;20177;-57
2020/12/18 02:15:55;;;;;;;13.33;10.13;;;;;;;;;;2072104;28;20609;-56
2020/12/18 02:17:05;;;;;;;11.20;9.27;;;;;;;;;;2067009;28;20268;-55
2020/12/18 02:18:10;;;;;;;12.23;9.93;;;;;;;;;;2059367;28;20174;-58
2020/12/18 02:19:12;;;;;;;12.43;10.20;;;;;;;;;;2058686;28;20178;-59
2020/12/18 02:20:15;;;;;;;12.80;9.60;;;;;;;;;;2080125;28;20171;-61
2020/12/18 02:21:16;;;;;;;14.43;10.10;;;;;;;;;;2078774;28;20165;-59
2020/12/18 02:22:18;;;;;;;17.93;10.60;;;;;;;;;;2073168;28;20173;-57
2020/12/18 02:23:30;;;;;;;15.33;10.67;;;;;;;;;;2065818;28;20169;-59
2020/12/18 02:24:33;;;;;;;13.90;10.93;;;;;;;;;;2075566;28;20179;-60
2020/12/18 02:25:37;;;;;;;14.90;10.60;;;;;;;;;;2082281;28;20180;-59
2020/12/18 02:26:37;;;;;;;13.48;11.05;;;;;;;;;;2066646;28;20245;-59
2020/12/18 02:27:40;;;;;;;15.02;10.85;;;;;;;;;;2066337;28;20199;-58
2020/12/18 02:28:48;;;;;;;15.33;11.43;;;;;;;;;;2078756;28;20207;-59
2020/12/18 02:29:53;;;;;;;17.27;11.57;;;;;;;;;;2082375;28;20168;-59
2020/12/18 02:30:53;;;;;;;14.40;10.43;;;;;;;;;;2082473;28;20168;-59
2020/12/18 02:32:17;;;;;;;13.90;9.35;;;;;;;;;;2081889;28;20199;-60
2020/12/18 02:33:24;;;;;;;12.03;10.00;;;;;;;;;;2065858;28;20821;-61
2020/12/18 02:34:34;;;;;;;14.10;9.87;;;;;;;;;;2068240;28;20178;-59
2020/12/18 02:35:39;;;;;;;12.37;10.47;;;;;;;;;;2082116;28;20176;-60
2020/12/18 02:36:39;;;;;;;13.40;9.67;;;;;;;;;;2082893;28;20183;-59
2020/12/18 02:37:41;;;;;;;13.77;10.33;;;;;;;;;;2082033;28;20214;-57
2020/12/18 02:38:49;;;;;;;14.97;10.50;;;;;;;;;;2071029;28;20176;-60
2020/12/18 02:39:55;;;;;;;15.30;10.27;;;;;;;;;;2081960;28;20184;-60
2020/12/18 02:41:07;;;;;;;11.67;8.93;;;;;;;;;;2082276;28;20187;-61
2020/12/18 02:42:28;;;;;;;9.80;8.80;;;;;;;;;;2082429;28;20199;-56
2020/12/18 02:43:28;;;;;;;14.00;9.23;;;;;;;;;;2081494;28;20203;-57
2020/12/18 02:44:29;;;;;;;12.63;9.77;;;;;;;;;;2067636;28;20819;-58
2020/12/18 02:45:54;;;;;;;14.47;9.73;;;;;;;;;;2072507;28;20195;-60
2020/12/18 02:46:58;;;;;;;10.20;9.17;;;;;;;;;;2071710;28;20636;-56
2020/12/18 02:47:59;;;;;;;13.37;9.63;;;;;;;;;;2079328;28;20176;-59
2020/12/18 02:49:09;;;;;;;14.20;8.63;;;;;;;;;;2080805;28;20200;-59
2020/12/18 02:50:17;;;;;;;10.80;8.77;;;;;;;;;;2073767;28;20328;-58
2020/12/18 02:51:23;;;;;;;12.33;8.37;;;;;;;;;;2057899;28;20670;-59
2020/12/18 02:52:37;;;;;;;14.10;9.17;;;;;;;;;;2068274;28;20223;-59
2020/12/18 02:53:56;;;;;;;11.98;8.55;;;;;;;;;;2071944;28;20680;-60
2020/12/18 02:55:06;;;;;;;12.60;8.40;;;;;;;;;;2069677;28;20197;-59
2020/12/18 02:56:24;;;;;;;10.57;9.50;;;;;;;;;;2069979;28;20268;-57
2020/12/18 02:57:56;;;;;;;9.60;7.60;;;;;;;;;;2063739;28;20243;-58
2020/12/18 02:59:02;;;;;;;9.53;8.43;;;;;;;;;;2085958;28;20677;-58
2020/12/18 03:00:04;;;;;;;9.73;8.40;;;;;;;;;;2085318;28;20171;-57
2020/12/18 03:01:06;;;;;;;8.55;7.43;;;;;;;;;;2082491;28;20176;-54
2020/12/18 03:02:07;;;;;;;12.40;8.80;;;;;;;;;;2073618;28;20176;-53
2020/12/18 03:03:07;;;;;;;10.53;8.23;;;;;;;;;;2069320;28;20181;-57
2020/12/18 03:04:08;;;;;;;12.83;8.77;;;;;;;;;;2081894;28;20238;-57
2020/12/18 03:05:41;;;;;;;10.70;8.03;;;;;;;;;;2054632;28;20194;-57
2020/12/18 03:06:49;;;;;;;9.30;7.50;;;;;;;;;;2071043;28;20265;-56
2020/12/18 03:07:49;;;;;;;11.70;8.53;;;;;;;;;;2074658;28;20623;-57
2020/12/18 03:08:49;;;;;;;11.27;7.80;;;;;;;;;;2084502;28;20199;-59
2020/12/18 03:09:50;;;;;;;12.10;8.73;;;;;;;;;;2083593;28;20168;-58
2020/12/18 03:10:52;;;;;;;12.90;9.27;;;;;;;;;;2076866;28;20272;-61
2020/12/18 03:11:52;;;;;;;10.80;8.00;;;;;;;;;;2068901;28;20601;-58
2020/12/18 03:12:53;;;;;;;9.90;8.90;;;;;;;;;;2064302;28;20176;-59
2020/12/18 03:13:53;;;;;;;12.97;8.23;;;;;;;;;;2079757;28;20726;-59
2020/12/18 03:14:56;;;;;;;15.90;9.33;;;;;;;;;;2075388;28;20173;-58
2020/12/18 03:16:16;;;;;;;9.47;8.00;;;;;;;;;;2070858;28;20255;-60
2020/12/18 03:17:27;;;;;;;11.60;8.40;;;;;;;;;;2071166;28;20180;-60
2020/12/18 03:18:33;;;;;;;9.33;8.17;;;;;;;;;;2079458;28;20206;-57
2020/12/18 03:19:39;;;;;;;11.23;8.40;;;;;;;;;;2075223;28;20251;-56
2020/12/18 03:20:52;;;;;;;10.90;8.00;;;;;;;;;;2082179;28;20176;-57
2020/12/18 03:22:11;;;;;;;11.13;8.30;;;;;;;;;;2076284;28;20189;-59
2020/12/18 03:23:28;;;;;;;9.23;8.23;;;;;;;;;;2082262;28;20172;-59
2020/12/18 03:24:49;;;;;;;13.10;9.80;;;;;;;;;;2074147;28;20172;-58
2020/12/18 03:26:13;;;;;;;10.37;7.47;;;;;;;;;;2072266;28;20694;-58
2020/12/18 03:27:21;;;;;;;8.33;7.23;;;;;;;;;;2067952;28;20173;-59
2020/12/18 03:28:30;;;;;;;11.88;8.27;;;;;;;;;;2065454;28;20260;-60
2020/12/18 03:29:31;;;;;;;10.23;8.47;;;;;;;;;;2073235;28;20189;-57
2020/12/18 03:30:32;;;;;;;12.50;8.27;;;;;;;;;;2081658;28;20689;-59
2020/12/18 03:31:35;;;;;;;11.43;7.40;;;;;;;;;;2065811;28;20596;-59
2020/12/18 03:32:36;;;;;;;10.70;8.17;;;;;;;;;;2065801;28;20185;-56
2020/12/18 03:33:46;;;;;;;12.17;8.10;;;;;;;;;;2074632;28;20161;-58
2020/12/18 03:35:13;;;;;;;12.00;8.50;;;;;;;;;;2083912;28;20179;-59
2020/12/18 03:36:15;;;;;;;13.83;8.87;;;;;;;;;;2080287;28;20212;-58
2020/12/18 03:37:15;;;;;;;12.90;8.43;;;;;;;;;;2066431;28;20172;-58
2020/12/18 03:38:16;;;;;;;11.93;7.77;;;;;;;;;;2079407;28;20197;-57
2020/12/18 03:39:16;;;;;;;12.80;8.47;;;;;;;;;;2072732;28;20199;-58
2020/12/18 03:40:32;;;;;;;14.47;8.03;;;;;;;;;;2074114;28;20177;-58
2020/12/18 03:41:44;;;;;;;13.17;8.60;;;;;;;;;;2076277;28;20188;-59
2020/12/18 03:42:47;;;;;;;11.00;7.33;;;;;;;;;;2070549;28;20169;-59
2020/12/18 03:43:48;;;;;;;9.07;8.03;;;;;;;;;;2070169;28;20716;-60
2020/12/18 03:44:48;;;;;;;14.80;9.00;;;;;;;;;;2071842;28;20177;-60
2020/12/18 03:45:59;;;;;;;11.23;8.30;;;;;;;;;;2069034;28;20207;-60
2020/12/18 03:47:09;;;;;;;12.67;8.73;;;;;;;;;;2076025;28;20153;-56
2020/12/18 03:48:25;;;;;;;12.63;8.43;;;;;;;;;;2071855;28;20208;-59
2020/12/18 03:49:34;;;;;;;10.97;7.73;;;;;;;;;;2079669;28;20567;-59
2020/12/18 03:50:38;;;;;;;11.43;8.37;;;;;;;;;;2073336;28;20730;-59
2020/12/18 03:51:46;;;;;;;12.93;8.57;;;;;;;;;;2070667;28;20173;-59
2020/12/18 03:52:52;;;;;;;9.37;8.33;;;;;;;;;;2072982;28;20169;-59
2020/12/18 03:53:53;;;;;;;10.07;8.47;;;;;;;;;;2067272;28;20208;-59
2020/12/18 03:55:03;;;;;;;8.57;7.70;;;;;;;;;;2075389;28;20161;-60
2020/12/18 03:56:31;;;;;;;8.57;7.73;;;;;;;;;;2088447;28;20180;-60
2020/12/18 03:57:55;;;;;;;9.70;7.67;;;;;;;;;;2074281;28;20321;-60
2020/12/18 03:59:02;;;;;;;11.07;7.70;;;;;;;;;;2071586;28;20227;-59
2020/12/18 04:00:21;;;;;;;9.50;7.80;;;;;;;;;;2073964;28;20177;-59
2020/12/18 04:01:28;;;;;;;10.77;7.80;;;;;;;;;;2078557;28;20184;-61
2020/12/18 04:02:29;;;;;;;14.33;8.90;;;;;;;;;;2073169;28;20632;-60
2020/12/18 04:03:29;;;;;;;10.57;7.90;;;;;;;;;;2058827;28;20206;-58
2020/12/18 04:04:29;;;;;;;13.40;8.37;;;;;;;;;;2071413;28;20165;-59
2020/12/18 04:05:34;;;;;;;8.43;7.53;;;;;;;;;;2080192;28;20211;-58
2020/12/18 04:06:36;;;;;;;9.90;8.10;;;;;;;;;;2073089;28;20188;-57
2020/12/18 04:07:37;;;;;;;11.50;7.33;;;;;;;;;;2070336;28;20177;-59
2020/12/18 04:08:46;;;;;;;9.70;7.37;;;;;;;;;;2073731;28;20263;-60
2020/12/18 04:10:07;;;;;;;10.23;7.13;;;;;;;;;;2077967;28;20173;-58
2020/12/18 04:11:18;;;;;;;10.87;6.97;;;;;;;;;;2072389;28;20188;-58
2020/12/18 04:12:25;;;;;;;9.77;7.23;;;;;;;;;;2074372;28;20176;-61
2020/12/18 04:13:30;;;;;;;13.37;7.50;;;;;;;;;;2074258;28;20173;-59
2020/12/18 04:14:31;;;;;;;10.10;7.83;;;;;;;;;;2073323;28;20177;-61
2020/12/18 04:15:40;;;;;;;9.10;7.17;;;;;;;;;;2069402;28;20178;-61
2020/12/18 04:16:41;;;;;;;10.67;8.37;;;;;;;;;;2074369;28;20181;-58
2020/12/18 04:17:41;;;;;;;12.23;8.53;;;;;;;;;;2070812;28;20188;-60
2020/12/18 04:18:45;;;;;;;11.33;7.77;;;;;;;;;;2081889;28;20618;-59
2020/12/18 04:19:47;;;;;;;10.17;7.77;;;;;;;;;;2080425;28;20165;-60
2020/12/18 04:20:47;;;;;;;10.67;7.73;;;;;;;;;;2057436;28;20198;-57
2020/12/18 04:22:03;;;;;;;7.80;6.97;;;;;;;;;;2073160;28;20940;-58
2020/12/18 04:23:22;;;;;;;8.57;7.47;;;;;;;;;;2090355;28;20219;-60
2020/12/18 04:25:02;;;;;;;8.13;7.00;;;;;;;;;;2076204;28;20187;-58
2020/12/18 04:26:09;;;;;;;9.63;7.27;;;;;;;;;;2073758;28;20203;-58
2020/12/18 04:27:10;;;;;;;10.47;7.47;;;;;;;;;;2064939;28;20188;-58
2020/12/18 04:28:10;;;;;;;9.13;7.57;;;;;;;;;;2077197;28;20200;-59
2020/12/18 04:29:11;;;;;;;8.37;7.40;;;;;;;;;;2071579;28;20263;-58
2020/12/18 04:30:13;;;;;;;14.77;7.87;;;;;;;;;;2061962;28;20177;-59
2020/12/18 04:31:17;;;;;;;9.90;7.80;;;;;;;;;;2065386;28;20192;-58
2020/12/18 04:32:18;;;;;;;9.23;7.07;;;;;;;;;;2066154;28;20597;-60
2020/12/18 04:33:19;;;;;;;13.07;8.10;;;;;;;;;;2078782;28;20180;-59
2020/12/18 04:34:19;;;;;;;13.13;8.40;;;;;;;;;;2073270;28;20231;-59
2020/12/18 04:35:43;;;;;;;8.87;7.83;;;;;;;;;;2074034;28;20251;-60
2020/12/18 04:36:48;;;;;;;8.97;8.03;;;;;;;;;;2070474;28;20213;-61
2020/12/18 04:37:51;;;;;;;12.83;8.13;;;;;;;;;;2073992;28;20179;-60
2020/12/18 04:39:17;;;;;;;10.13;8.17;;;;;;;;;;2077346;28;20199;-59
2020/12/18 04:40:19;;;;;;;10.70;7.13;;;;;;;;;;2078841;28;20214;-60
2020/12/18 04:41:39;;;;;;;11.50;7.47;;;;;;;;;;2070240;28;20176;-58
2020/12/18 04:42:46;;;;;;;10.80;8.70;;;;;;;;;;2078693;28;20173;-58
2020/12/18 04:43:47;;;;;;;10.33;7.90;;;;;;;;;;2074123;28;20196;-57
2020/12/18 04:44:55;;;;;;;10.73;7.77;;;;;;;;;;2067908;28;20186;-61
2020/12/18 04:45:56;;;;;;;11.20;7.90;;;;;;;;;;2073569;28;20193;-62
2020/12/18 04:47:01;;;;;;;11.57;7.93;;;;;;;;;;2068203;28;20193;-54
2020/12/18 04:48:02;;;;;;;11.57;8.37;;;;;;;;;;2064554;28;20201;-61
2020/12/18 04:49:07;;;;;;;8.23;7.40;;;;;;;;;;2070794;28;20647;-59
2020/12/18 04:50:13;;;;;;;13.40;7.57;;;;;;;;;;2078987;28;20798;-56
2020/12/18 04:51:27;;;;;;;9.23;7.37;;;;;;;;;;2075665;28;20212;-59
2020/12/18 04:52:44;;;;;;;12.90;8.40;;;;;;;;;;2077077;28;20195;-60
2020/12/18 04:53:47;;;;;;;8.60;7.10;;;;;;;;;;2073169;28;20173;-60
2020/12/18 04:54:58;;;;;;;13.17;8.50;;;;;;;;;;2063756;28;20178;-60
2020/12/18 04:56:22;;;;;;;10.17;7.53;;;;;;;;;;2056930;28;20230;-60
2020/12/18 04:57:37;;;;;;;8.43;7.67;;;;;;;;;;2070096;28;20168;-59
2020/12/18 04:58:41;;;;;;;12.53;7.63;;;;;;;;;;2076714;28;20250;-61
2020/12/18 04:59:42;;;;;;;11.40;7.90;;;;;;;;;;2080655;28;20700;-56
2020/12/18 05:01:16;;;;;;;12.80;8.23;;;;;;;;;;2082544;28;20574;-59
2020/12/18 05:02:23;;;;;;;13.30;7.20;;;;;;;;;;2081711;28;20180;-60
2020/12/18 05:03:31;;;;;;;10.67;6.70;;;;;;;;;;2074192;28;20180;-61
2020/12/18 05:04:31;;;;;;;10.40;6.90;;;;;;;;;;2067618;28;20209;-58
2020/12/18 05:05:49;;;;;;;12.07;7.33;;;;;;;;;;2070076;28;20201;-62
2020/12/18 05:06:52;;;;;;;12.10;7.03;;;;;;;;;;2075030;28;20164;-59
2020/12/18 05:08:03;;;;;;;9.97;7.20;;;;;;;;;;2071018;28;20264;-59
2020/12/18 05:09:04;;;;;;;8.77;6.57;;;;;;;;;;2070101;28;20211;-59
2020/12/18 05:10:08;;;;;;;7.60;6.90;;;;;;;;;;2076070;28;20185;-58
2020/12/18 05:11:32;;;;;;;8.93;6.10;;;;;;;;;;2080561;28;20173;-57
2020/12/18 05:12:38;;;;;;;8.20;7.00;;;;;;;;;;2078645;28;20212;-59
2020/12/18 05:13:39;;;;;;;11.30;7.33;;;;;;;;;;2076434;28;20181;-60
2020/12/18 05:14:43;;;;;;;9.40;6.53;;;;;;;;;;2064162;28;20185;-60
2020/12/18 05:15:58;;;;;;;10.50;6.93;;;;;;;;;;2081224;28;20193;-60
2020/12/18 05:17:15;;;;;;;11.03;7.07;;;;;;;;;;2075315;28;20180;-58
2020/12/18 05:18:15;;;;;;;9.73;6.47;;;;;;;;;;2062209;28;20178;-61
2020/12/18 05:19:17;;;;;;;9.57;7.20;;;;;;;;;;2070577;28;20173;-60
2020/12/18 05:20:50;;;;;;;7.87;7.00;;;;;;;;;;2038849;29;20191;-57
2020/12/18 05:22:21;;;;;;;10.37;6.83;;;;;;;;;;2072773;28;20260;-56
2020/12/18 05:23:41;;;;;;;11.10;7.37;;;;;;;;;;2072904;28;20173;-57
2020/12/18 05:24:58;;;;;;;11.10;7.07;;;;;;;;;;2076356;28;20176;-58
2020/12/18 05:26:00;;;;;;;12.47;7.40;;;;;;;;;;2073270;28;20224;-57
2020/12/18 05:27:11;;;;;;;11.83;8.70;;;;;;;;;;2069419;28;20252;-56
2020/12/18 05:28:18;;;;;;;10.33;7.07;;;;;;;;;;2070658;28;20178;-58
2020/12/18 05:29:19;;;;;;;12.70;7.03;;;;;;;;;;2074330;28;20788;-59
2020/12/18 05:30:43;;;;;;;12.83;7.07;;;;;;;;;;2075730;28;20262;-57
2020/12/18 05:32:03;;;;;;;12.07;7.53;;;;;;;;;;2088697;28;20246;-58
2020/12/18 05:33:09;;;;;;;14.20;7.50;;;;;;;;;;2073830;28;20211;-59
2020/12/18 05:34:30;;;;;;;12.27;6.87;;;;;;;;;;2082734;28;20265;-60
2020/12/18 05:35:44;;;;;;;13.67;7.63;;;;;;;;;;2081114;28;20273;-59
2020/12/18 05:36:50;;;;;;;9.00;7.17;;;;;;;;;;2075927;28;20208;-61
2020/12/18 05:38:03;;;;;;;10.07;7.70;;;;;;;;;;2082312;28;20184;-57
2020/12/18 05:39:25;;;;;;;8.37;7.30;;;;;;;;;;2067289;28;20209;-59
2020/12/18 05:40:28;;;;;;;10.27;6.87;;;;;;;;;;2068696;28;20527;-58
2020/12/18 05:41:57;;;;;;;10.73;6.53;;;;;;;;;;2072964;28;20249;-60
2020/12/18 05:43:04;;;;;;;9.33;6.33;;;;;;;;;;2078196;28;20551;-57
2020/12/18 05:44:06;;;;;;;9.57;7.00;;;;;;;;;;2074990;28;20227;-60
2020/12/18 05:45:26;;;;;;;11.40;6.93;;;;;;;;;;2075073;28;20211;-58
2020/12/18 05:47:07;;;;;;;9.10;7.00;;;;;;;;;;2075783;28;20215;-58
2020/12/18 05:48:13;;;;;;;14.37;7.50;;;;;;;;;;2063577;28;20627;-58
2020/12/18 05:49:29;;;;;;;12.07;7.70;;;;;;;;;;2068863;28;20689;-59
2020/12/18 05:50:36;;;;;;;12.63;7.40;;;;;;;;;;2074445;28;20269;-56
2020/12/18 05:51:37;;;;;;;9.97;7.50;;;;;;;;;;2070989;28;20177;-58
2020/12/18 05:52:39;;;;;;;10.67;8.43;;;;;;;;;;2081250;28;20549;-58
2020/12/18 05:54:03;;;;;;;11.43;7.83;;;;;;;;;;2081085;28;20227;-57
2020/12/18 05:55:10;;;;;;;10.90;8.10;;;;;;;;;;2081968;28;20180;-58
2020/12/18 05:56:29;;;;;;;9.73;7.50;;;;;;;;;;2070576;28;20188;-59
2020/12/18 05:57:35;;;;;;;10.17;7.27;;;;;;;;;;2072670;28;20184;-60
2020/12/18 05:58:40;;;;;;;11.00;7.33;;;;;;;;;;2074595;28;20596;-60
2020/12/18 05:59:48;;;;;;;10.10;7.43;;;;;;;;;;2072251;28;20180;-59
2020/12/18 06:01:03;;;;;;;17.53;7.13;;;;;;;;;;2081804;28;20259;-60
2020/12/18 06:02:27;;;;;;;9.27;7.13;;;;;;;;;;2084774;28;20215;-60
2020/12/18 06:03:38;;;;;;;12.37;7.93;;;;;;;;;;2081487;28;20768;-61
2020/12/18 06:04:43;;;;;;;9.93;7.03;;;;;;;;;;2073476;28;20196;-63
2020/12/18 06:05:58;;;;;;;7.17;6.47;;;;;;;;;;2081705;28;20710;-57
2020/12/18 06:07:02;;;;;;;9.87;6.40;;;;;;;;;;2071572;28;20162;-59
2020/12/18 06:08:26;;;;;;;10.73;6.50;;;;;;;;;;2039112;29;20187;-58
2020/12/18 06:09:30;;;;;;;8.60;6.97;;;;;;;;;;2080593;28;20196;-60
2020/12/18 06:10:32;;;;;;;8.60;7.10;;;;;;;;;;2088522;28;20226;-61
2020/12/18 06:11:55;;;;;;;11.00;6.70;;;;;;;;;;2081591;28;20669;-60
2020/12/18 06:13:00;;;;;;;8.67;6.53;;;;;;;;;;2072679;28;20264;-58
2020/12/18 06:14:02;;;;;;;8.80;6.03;;;;;;;;;;2067772;28;20188;-60
2020/12/18 06:15:12;;;;;;;7.60;6.03;;;;;;;;;;2081247;28;20230;-60
2020/12/18 06:16:15;;;;;;;12.57;7.03;;;;;;;;;;2073416;28;20841;-60
2020/12/18 06:17:28;;;;;;;7.47;5.83;;;;;;;;;;2082395;28;20695;-62
2020/12/18 06:18:34;;;;;;;7.97;6.20;;;;;;;;;;2078250;28;20165;-60
2020/12/18 06:19:36;;;;;;;7.07;6.20;;;;;;;;;;2085293;28;20187;-61
2020/12/18 06:20:36;;;;;;;10.43;5.73;;;;;;;;;;2077260;28;20175;-61
2020/12/18 06:21:38;;;;;;;11.83;7.10;;;;;;;;;;2086305;28;20202;-58
2020/12/18 06:22:58;;;;;;;8.03;5.70;;;;;;;;;;2087303;28;20168;-62
2020/12/18 06:24:19;;;;;;;7.43;5.47;;;;;;;;;;2088285;28;20214;-60
2020/12/18 06:25:43;;;;;;;11.27;6.23;;;;;;;;;;2083665;28;20185;-61
2020/12/18 06:27:02;;;;;;;10.77;6.63;;;;;;;;;;2081016;28;20169;-55
2020/12/18 06:28:19;;;;;;;9.73;6.50;;;;;;;;;;2073574;28;20179;-60
2020/12/18 06:29:27;;;;;;;12.57;6.40;;;;;;;;;;2067207;28;20700;-60
2020/12/18 06:30:57;;;;;;;8.60;6.90;;;;;;;;;;2068196;28;20169;-61
2020/12/18 06:32:23;;;;;;;9.03;7.07;;;;;;;;;;2081806;28;20195;-59
2020/12/18 06:33:50;;;;;;;11.63;6.47;;;;;;;;;;2065906;28;20193;-60
2020/12/18 06:35:30;;;;;;;8.30;6.93;;;;;;;;;;2057784;28;20182;-59
2020/12/18 06:36:49;;;;;;;7.93;5.97;;;;;;;;;;2082148;28;20176;-59
2020/12/18 06:38:13;;;;;;;9.40;6.53;;;;;;;;;;2084547;23;20219;-58